createdAt,value
2022-08-12T00:01:02.080Z,86.43
2022-08-12T00:03:47.332Z,86.67
2022-08-12T00:06:33.684Z,88.32
2022-08-12T00:09:25.763Z,89.08
2022-08-12T00:12:12.752Z,88.72
2022-08-12T00:14:59.329Z,89.05
2022-08-12T00:17:45.555Z,87.61
2022-08-12T00:20:31.141Z,86.92
2022-08-12T00:23:17.276Z,86.61
2022-08-12T00:26:23.747Z,86.03
2022-08-12T00:29:13.804Z,85.80
2022-08-12T00:32:00.970Z,85.56
2022-08-12T00:34:49.337Z,85.89
2022-08-12T00:37:36.548Z,86.38
2022-08-12T00:40:28.047Z,88.18
2022-08-12T00:42:56.955Z,88.81
2022-08-12T00:45:24.551Z,89.19
2022-08-12T00:47:53.505Z,89.11
2022-08-12T00:50:22.803Z,89.14
2022-08-12T00:52:52.532Z,89.11
2022-08-12T00:55:20.487Z,88.65
2022-08-12T00:57:50.025Z,88.42
2022-08-12T01:00:22.860Z,88.41
2022-08-12T01:02:53.517Z,89.67
2022-08-12T01:05:42.044Z,90.17
2022-08-12T01:08:27.745Z,91.31
2022-08-12T01:11:15.115Z,92.01
2022-08-12T01:13:47.262Z,92.30
2022-08-12T01:16:18.044Z,92.54
2022-08-12T01:18:45.413Z,93.01
2022-08-12T01:21:26.611Z,92.58
2022-08-12T01:24:30.854Z,92.09
2022-08-12T01:26:58.784Z,91.42
2022-08-12T01:29:32.923Z,91.50
2022-08-12T01:32:05.833Z,91.85
2022-08-12T01:34:38.791Z,93.44
2022-08-12T01:37:10.122Z,94.36
2022-08-12T01:40:33.689Z,94.91
2022-08-12T01:42:48.795Z,94.50
2022-08-12T01:45:17.715Z,94.46
2022-08-12T01:48:05.422Z,93.77
2022-08-12T01:50:47.471Z,93.72
2022-08-12T01:53:18.293Z,93.30
2022-08-12T01:55:47.793Z,93.65
2022-08-12T01:58:55.536Z,93.40
2022-08-12T02:01:27.912Z,93.87
2022-08-12T02:04:33.227Z,95.44
2022-08-12T02:07:18.509Z,97.01
2022-08-12T02:10:50.923Z,97.92
2022-08-12T02:13:42.076Z,98.84
2022-08-12T02:16:23.828Z,99.42
2022-08-12T02:19:22.783Z,99.61
2022-08-12T02:22:04.832Z,99.77
2022-08-12T02:24:37.709Z,99.38
2022-08-12T02:27:08.378Z,99.70
2022-08-12T02:29:40.413Z,99.63
2022-08-12T02:32:08.447Z,99.92
2022-08-12T02:34:35.832Z,100.00
2022-08-12T02:37:05.031Z,99.65
2022-08-12T02:39:35.556Z,98.97
2022-08-12T02:42:06.797Z,99.28
2022-08-12T02:44:40.390Z,99.38
2022-08-12T02:47:59.055Z,99.30
2022-08-12T02:49:58.457Z,98.69
2022-08-12T02:52:27.646Z,99.38
2022-08-12T02:55:13.385Z,99.50
2022-08-12T02:57:57.468Z,100.00
2022-08-12T03:00:26.314Z,100.00
2022-08-12T03:02:57.196Z,100.00
2022-08-12T03:05:26.336Z,100.00
2022-08-12T03:07:59.950Z,100.00
2022-08-12T03:10:37.000Z,100.00
2022-08-12T03:13:07.510Z,100.00
2022-08-12T03:15:35.790Z,100.00
2022-08-12T03:18:25.675Z,100.00
2022-08-12T03:20:54.765Z,100.00
2022-08-12T03:23:30.222Z,100.00
2022-08-12T03:26:01.788Z,99.82
2022-08-12T03:28:50.485Z,100.00
2022-08-12T03:31:35.471Z,100.00
2022-08-12T03:34:09.850Z,100.00
2022-08-12T03:36:38.785Z,100.00
2022-08-12T03:39:18.262Z,100.00
2022-08-12T03:41:54.951Z,100.00
2022-08-12T03:45:00.825Z,100.00
2022-08-12T03:48:13.405Z,100.00
2022-08-12T03:51:05.641Z,100.00
2022-08-12T03:53:52.190Z,100.00
2022-08-12T03:56:38.008Z,100.00
2022-08-12T03:59:24.914Z,100.00
2022-08-12T04:01:57.808Z,100.00
2022-08-12T04:04:34.848Z,100.00
2022-08-12T04:07:04.613Z,100.00
2022-08-12T04:09:31.916Z,100.00
2022-08-12T04:12:17.272Z,100.00
2022-08-12T04:14:44.249Z,100.00
2022-08-12T04:17:12.416Z,100.00
2022-08-12T04:19:40.100Z,100.00
2022-08-12T04:22:06.963Z,99.32
2022-08-12T04:24:36.042Z,98.89
2022-08-12T04:27:10.290Z,98.65
2022-08-12T04:30:30.290Z,98.64
2022-08-12T04:32:26.430Z,97.35
2022-08-12T04:34:59.129Z,98.06
2022-08-12T04:37:27.568Z,94.49
2022-08-12T04:39:55.193Z,94.96
2022-08-12T04:42:23.936Z,94.05
2022-08-12T04:44:50.670Z,94.36
2022-08-12T04:47:19.271Z,94.45
2022-08-12T04:49:48.362Z,94.29
2022-08-12T04:52:16.023Z,93.73
2022-08-12T04:54:44.132Z,93.76
2022-08-12T04:57:11.344Z,92.89
2022-08-12T04:59:47.888Z,91.80
2022-08-12T05:02:21.795Z,92.04
2022-08-12T05:04:51.730Z,91.98
2022-08-12T05:07:20.291Z,91.24
2022-08-12T05:10:00.362Z,91.54
2022-08-12T05:12:36.683Z,91.58
2022-08-12T05:15:16.795Z,91.58
2022-08-12T05:17:52.520Z,92.24
2022-08-12T05:20:21.266Z,92.03
2022-08-12T05:22:50.091Z,91.80
2022-08-12T05:25:24.020Z,91.04
2022-08-12T05:27:58.566Z,91.87
2022-08-12T05:30:33.551Z,91.91
2022-08-12T05:33:05.319Z,92.89
2022-08-12T05:35:43.191Z,93.42
2022-08-12T05:38:33.887Z,94.88
2022-08-12T05:41:01.977Z,95.64
2022-08-12T05:43:29.114Z,96.71
2022-08-12T05:45:56.740Z,96.06
2022-08-12T05:48:24.631Z,96.63
2022-08-12T05:50:52.993Z,97.03
2022-08-12T05:53:19.926Z,96.39
2022-08-12T05:55:46.768Z,96.24
2022-08-12T05:58:13.733Z,95.93
2022-08-12T06:00:42.558Z,95.43
2022-08-12T06:03:09.511Z,94.41
2022-08-12T06:05:54.409Z,94.84
2022-08-12T06:08:24.138Z,94.59
2022-08-12T06:10:51.438Z,93.08
2022-08-12T06:13:28.355Z,93.24
2022-08-12T06:16:07.386Z,93.40
2022-08-12T06:18:34.408Z,93.51
2022-08-12T06:21:01.894Z,92.80
2022-08-12T06:23:29.944Z,93.32
2022-08-12T06:25:57.702Z,92.73
2022-08-12T06:28:25.291Z,92.13
2022-08-12T06:31:15.254Z,89.77
2022-08-12T06:33:59.593Z,90.95
2022-08-12T06:36:29.502Z,89.35
2022-08-12T06:38:59.556Z,89.79
2022-08-12T06:42:10.692Z,89.90
2022-08-12T06:44:32.273Z,87.64
2022-08-12T06:46:59.082Z,84.63
2022-08-12T06:49:26.020Z,83.27
2022-08-12T06:51:56.828Z,83.06
2022-08-12T06:54:30.872Z,83.70
2022-08-12T06:57:04.356Z,82.63
2022-08-12T06:59:32.584Z,81.16
2022-08-12T07:01:59.616Z,78.33
2022-08-12T07:04:36.215Z,77.51
2022-08-12T07:07:05.491Z,75.16
2022-08-12T07:10:01.421Z,74.64
2022-08-12T07:12:20.062Z,73.99
2022-08-12T07:14:50.559Z,73.34
2022-08-12T07:17:17.679Z,73.88
2022-08-12T07:19:46.790Z,72.80
2022-08-12T07:22:16.134Z,71.45
2022-08-12T07:24:43.080Z,71.08
2022-08-12T07:27:09.956Z,67.84
2022-08-12T07:30:03.480Z,68.58
2022-08-12T07:32:25.635Z,68.43
2022-08-12T07:34:56.901Z,66.04
2022-08-12T07:37:23.796Z,66.22
2022-08-12T07:39:59.350Z,65.25
2022-08-12T07:42:28.837Z,64.63
2022-08-12T07:44:56.839Z,65.56
2022-08-12T07:47:27.052Z,66.23
2022-08-12T07:50:05.873Z,64.26
2022-08-12T07:52:38.693Z,63.77
2022-08-12T07:55:06.963Z,63.25
2022-08-12T07:57:35.301Z,61.63
2022-08-12T08:00:05.951Z,61.37
2022-08-12T08:02:37.650Z,61.88
2022-08-12T08:05:05.252Z,60.28
2022-08-12T08:07:32.193Z,60.60
2022-08-12T08:10:00.549Z,58.44
2022-08-12T08:12:47.510Z,58.12
2022-08-12T08:15:15.978Z,57.76
2022-08-12T08:18:03.462Z,57.40
2022-08-12T08:20:37.956Z,56.34
2022-08-12T08:23:08.126Z,55.43
2022-08-12T08:25:38.748Z,53.17
2022-08-12T08:28:18.903Z,50.94
2022-08-12T08:30:50.560Z,50.50
2022-08-12T08:34:01.251Z,48.64
2022-08-12T08:36:07.687Z,48.38
2022-08-12T08:38:57.517Z,48.80
2022-08-12T08:42:15.752Z,48.43
2022-08-12T08:44:39.476Z,47.31
2022-08-12T08:47:07.845Z,48.21
2022-08-12T08:49:37.203Z,47.14
2022-08-12T08:52:10.866Z,47.02
2022-08-12T08:54:38.250Z,45.22
2022-08-12T08:57:08.292Z,44.09
2022-08-12T08:59:35.471Z,42.40
2022-08-12T09:02:02.675Z,42.60
2022-08-12T09:05:12.752Z,43.22
2022-08-12T09:07:51.287Z,40.57
2022-08-12T09:10:15.575Z,40.10
2022-08-12T09:13:23.468Z,38.47
2022-08-12T09:15:57.661Z,39.98
2022-08-12T09:18:33.146Z,38.12
2022-08-12T09:23:58.559Z,37.34
2022-08-12T09:26:33.751Z,37.13
2022-08-12T09:29:12.232Z,35.38
2022-08-12T09:32:07.973Z,35.71
2022-08-12T09:34:34.196Z,33.97
2022-08-12T09:37:19.282Z,34.42
2022-08-12T09:40:01.892Z,35.10
2022-08-12T09:43:15.244Z,33.53
2022-08-12T09:46:11.390Z,31.33
2022-08-12T09:48:36.731Z,32.87
2022-08-12T09:51:10.841Z,32.08
2022-08-12T09:53:45.725Z,32.43
2022-08-12T09:56:58.096Z,33.37
2022-08-12T10:00:13.133Z,31.96
2022-08-12T10:02:44.048Z,31.82
2022-08-12T10:04:59.607Z,33.70
2022-08-12T10:07:29.153Z,32.94
2022-08-12T10:10:08.125Z,34.45
2022-08-12T10:13:35.260Z,32.82
2022-08-12T10:16:07.649Z,33.18
2022-08-12T10:18:52.265Z,33.30
2022-08-12T10:21:37.557Z,32.08
2022-08-12T10:24:05.999Z,32.80
2022-08-12T10:26:52.890Z,32.56
2022-08-12T10:30:03.910Z,31.64
2022-08-12T10:32:44.038Z,32.55
2022-08-12T10:35:14.237Z,31.35
2022-08-12T10:38:32.279Z,31.52
2022-08-12T10:40:33.009Z,31.53
2022-08-12T10:43:20.620Z,32.97
2022-08-12T10:45:51.897Z,31.41
2022-08-12T10:48:34.318Z,30.40
2022-08-12T10:52:02.567Z,31.26
2022-08-12T10:53:52.530Z,31.14
2022-08-12T10:56:19.595Z,31.71
2022-08-12T10:58:49.279Z,31.30
2022-08-12T11:01:50.117Z,28.84
2022-08-12T11:04:31.875Z,29.31
2022-08-12T11:07:09.189Z,29.12
2022-08-12T11:10:01.272Z,29.77
2022-08-12T11:12:56.115Z,30.80
2022-08-12T11:15:20.917Z,31.52
2022-08-12T11:17:53.512Z,31.98
2022-08-12T11:20:30.597Z,33.04
2022-08-12T11:23:03.994Z,34.22
2022-08-12T11:25:55.971Z,35.16
2022-08-12T11:28:34.213Z,36.54
2022-08-12T11:31:05.559Z,37.47
2022-08-12T11:34:05.190Z,38.17
2022-08-12T11:36:21.959Z,38.24
2022-08-12T11:38:50.692Z,38.17
2022-08-12T11:41:28.031Z,37.80
2022-08-12T11:44:35.558Z,37.87
2022-08-12T11:46:53.084Z,37.99
2022-08-12T11:49:31.553Z,38.26
2022-08-12T11:52:02.307Z,37.45
2022-08-12T11:54:30.381Z,38.36
2022-08-12T11:57:00.487Z,37.94
2022-08-12T12:02:20.665Z,39.18
2022-08-12T12:04:52.674Z,39.04
2022-08-12T12:07:22.649Z,38.46
2022-08-12T12:10:03.763Z,39.95
2022-08-12T12:12:31.239Z,38.79
2022-08-12T12:15:02.812Z,39.76
2022-08-12T12:17:38.448Z,38.71
2022-08-12T12:20:11.411Z,38.02
2022-08-12T12:22:41.675Z,38.07
2022-08-12T12:25:13.215Z,38.47
2022-08-12T12:28:04.757Z,38.87
2022-08-12T12:30:33.290Z,38.88
2022-08-12T12:33:00.088Z,39.10
2022-08-12T12:36:18.754Z,39.85
2022-08-12T12:38:15.468Z,38.25
2022-08-12T12:40:44.482Z,37.77
2022-08-12T12:43:13.980Z,38.91
2022-08-12T12:45:45.843Z,38.98
2022-08-12T12:48:18.236Z,38.61
2022-08-12T12:50:51.639Z,39.07
2022-08-12T12:54:07.811Z,39.55
2022-08-12T12:56:15.724Z,39.42
2022-08-12T12:58:43.826Z,40.40
2022-08-12T13:01:25.338Z,41.11
2022-08-12T13:04:02.674Z,40.49
2022-08-12T13:06:31.718Z,40.73
2022-08-12T13:09:02.515Z,42.01
2022-08-12T13:11:39.244Z,41.78
2022-08-12T13:14:12.965Z,46.18
2022-08-12T13:16:56.603Z,49.65
2022-08-12T13:19:25.109Z,50.43
2022-08-12T13:22:19.038Z,55.16
2022-08-12T13:24:56.564Z,56.25
2022-08-12T13:27:35.005Z,58.70
2022-08-12T13:30:10.928Z,58.75
2022-08-12T13:32:57.129Z,61.11
2022-08-12T13:36:03.052Z,62.72
2022-08-12T13:38:34.046Z,65.39
2022-08-12T13:41:03.150Z,66.48
2022-08-12T13:43:40.232Z,65.97
2022-08-12T13:46:12.229Z,63.25
2022-08-12T13:48:44.963Z,64.73
2022-08-12T13:51:13.079Z,64.67
2022-08-12T13:53:55.248Z,70.07
2022-08-12T13:56:34.459Z,74.04
2022-08-12T13:59:07.996Z,73.34
2022-08-12T14:01:40.768Z,74.32
2022-08-12T14:04:11.576Z,71.71
2022-08-12T14:06:43.464Z,75.62
2022-08-12T14:09:17.830Z,73.86
2022-08-12T14:11:51.181Z,71.42
2022-08-12T14:14:31.071Z,74.23
2022-08-12T14:17:02.403Z,67.98
2022-08-12T14:19:37.675Z,65.34
2022-08-12T14:22:05.730Z,66.54
2022-08-12T14:24:40.093Z,65.65
2022-08-12T14:27:12.123Z,65.04
2022-08-12T14:30:04.380Z,63.88
2022-08-12T14:32:37.154Z,62.44
2022-08-12T14:35:09.055Z,64.19
2022-08-12T14:37:57.436Z,61.77
2022-08-12T14:40:29.995Z,59.79
2022-08-12T14:42:58.412Z,59.13
2022-08-12T14:45:45.114Z,60.31
2022-08-12T14:48:15.189Z,60.49
2022-08-12T14:51:02.667Z,55.99
2022-08-12T14:57:10.111Z,52.45
2022-08-12T14:59:26.419Z,52.88
2022-08-12T15:01:54.518Z,49.59
2022-08-12T15:04:26.239Z,46.44
2022-08-12T15:06:53.313Z,46.05
2022-08-12T15:09:28.796Z,47.03
2022-08-12T15:12:03.584Z,46.78
2022-08-12T15:14:35.339Z,46.95
2022-08-12T15:17:07.162Z,44.35
2022-08-12T15:20:27.845Z,40.95
2022-08-12T15:22:38.180Z,40.75
2022-08-12T15:25:07.503Z,39.45
2022-08-12T15:28:04.031Z,36.66
2022-08-12T15:30:33.842Z,33.71
2022-08-12T15:33:03.193Z,32.89
2022-08-12T15:35:50.184Z,30.73
2022-08-12T15:38:21.187Z,30.24
2022-08-12T15:40:51.344Z,30.38
2022-08-12T15:43:35.457Z,29.38
2022-08-12T15:46:06.539Z,29.77
2022-08-12T15:48:37.308Z,30.36
2022-08-12T15:51:04.638Z,31.22
2022-08-12T15:53:54.673Z,33.00
2022-08-12T15:56:29.474Z,34.38
2022-08-12T15:58:59.158Z,36.58
2022-08-12T16:01:35.365Z,35.92
2022-08-12T16:04:05.113Z,36.64
2022-08-12T16:09:56.561Z,36.87
2022-08-12T16:12:12.636Z,35.54
2022-08-12T16:14:41.834Z,35.99
2022-08-12T16:17:14.943Z,36.84
2022-08-12T16:20:03.541Z,37.94
2022-08-12T16:22:29.384Z,38.29
2022-08-12T16:24:57.412Z,38.94
2022-08-12T16:27:26.101Z,39.90
2022-08-12T16:29:57.418Z,40.81
2022-08-12T16:32:31.223Z,41.39
2022-08-12T16:34:59.807Z,42.06
2022-08-12T16:37:33.088Z,43.20
2022-08-12T16:40:15.190Z,44.54
2022-08-12T16:42:54.380Z,45.62
2022-08-12T16:46:05.114Z,47.45
2022-08-12T16:48:34.614Z,48.63
2022-08-12T16:51:08.202Z,51.13
2022-08-12T16:53:43.404Z,52.58
2022-08-12T16:56:12.582Z,54.01
2022-08-12T16:58:40.215Z,54.35
2022-08-12T17:01:11.974Z,55.27
2022-08-12T17:03:59.809Z,55.61
2022-08-12T17:06:28.058Z,57.56
2022-08-12T17:09:03.699Z,58.92
2022-08-12T17:11:38.854Z,59.75
2022-08-12T17:14:12.590Z,59.96
2022-08-12T17:16:41.482Z,62.20
2022-08-12T17:19:09.802Z,62.38
2022-08-12T17:21:41.400Z,63.23
2022-08-12T17:24:30.069Z,63.89
2022-08-12T17:26:59.859Z,66.06
2022-08-12T17:30:01.399Z,67.26
2022-08-12T17:32:14.670Z,68.35
2022-08-12T17:35:00.664Z,69.29
2022-08-12T17:37:28.287Z,69.54
2022-08-12T17:40:12.383Z,70.26
2022-08-12T17:42:47.526Z,71.16
2022-08-12T17:45:19.749Z,71.20
2022-08-12T17:48:02.121Z,71.16
2022-08-12T17:50:34.414Z,72.75
2022-08-12T17:53:02.747Z,73.56
2022-08-12T17:55:44.415Z,74.73
2022-08-12T17:58:37.013Z,75.36
2022-08-12T18:01:06.149Z,75.98
2022-08-12T18:03:58.095Z,77.00
2022-08-12T18:06:27.920Z,78.59
2022-08-12T18:08:58.792Z,79.25
2022-08-12T18:12:05.926Z,78.74
2022-08-12T18:14:37.280Z,79.51
2022-08-12T18:17:08.736Z,78.99
2022-08-12T18:20:07.041Z,79.06
2022-08-12T18:22:30.789Z,79.07
2022-08-12T18:26:12.729Z,78.60
2022-08-12T18:28:16.917Z,79.39
2022-08-12T18:30:52.776Z,79.25
2022-08-12T18:33:25.530Z,79.68
2022-08-12T18:35:55.743Z,80.95
2022-08-12T18:38:25.551Z,81.52
2022-08-12T18:41:21.743Z,81.88
2022-08-12T18:44:08.022Z,81.86
2022-08-12T18:46:54.069Z,82.23
2022-08-12T18:49:38.888Z,82.64
2022-08-12T18:52:08.696Z,82.62
2022-08-12T18:54:54.089Z,82.59
2022-08-12T18:57:46.062Z,83.66
2022-08-12T19:00:20.955Z,84.63
2022-08-12T19:02:50.972Z,85.24
2022-08-12T19:05:19.028Z,85.74
2022-08-12T19:08:00.745Z,86.03
2022-08-12T19:10:31.238Z,85.50
2022-08-12T19:13:39.498Z,85.49
2022-08-12T19:16:10.908Z,85.99
2022-08-12T19:18:46.152Z,86.34
2022-08-12T19:21:16.596Z,86.51
2022-08-12T19:24:04.489Z,87.52
2022-08-12T19:26:34.976Z,87.12
2022-08-12T19:29:05.752Z,87.50
2022-08-12T19:31:56.328Z,86.89
2022-08-12T19:37:22.635Z,87.45
2022-08-12T19:40:07.920Z,88.30
2022-08-12T19:42:42.800Z,87.92
2022-08-12T19:45:16.478Z,87.07
2022-08-12T19:47:45.000Z,87.92
2022-08-12T19:50:14.165Z,88.00
2022-08-12T19:52:48.046Z,87.51
2022-08-12T19:55:21.350Z,86.42
2022-08-12T19:58:03.357Z,85.82
2022-08-12T20:00:35.023Z,85.17
2022-08-12T20:03:04.516Z,85.44
2022-08-12T20:06:05.804Z,85.87
2022-08-12T20:08:29.375Z,86.41
2022-08-12T20:12:09.402Z,87.10
2022-08-12T20:14:00.720Z,88.05
2022-08-12T20:16:57.765Z,88.07
2022-08-12T20:19:52.894Z,89.35
2022-08-12T20:22:24.048Z,89.26
2022-08-12T20:24:57.438Z,89.96
2022-08-12T20:27:29.268Z,90.60
2022-08-12T20:30:13.712Z,91.14
2022-08-12T20:32:57.813Z,91.32
2022-08-12T20:36:06.900Z,91.85
2022-08-12T20:38:26.975Z,92.56
2022-08-12T20:40:55.798Z,93.42
2022-08-12T20:43:23.954Z,94.32
2022-08-12T20:45:57.327Z,93.18
2022-08-12T20:48:28.826Z,91.72
2022-08-12T20:51:04.411Z,90.95
2022-08-12T20:53:54.264Z,90.10
2022-08-12T20:56:36.505Z,91.38
2022-08-12T20:59:07.394Z,90.94
2022-08-12T21:01:46.651Z,91.15
2022-08-12T21:04:35.946Z,91.47
2022-08-12T21:07:09.187Z,92.10
2022-08-12T21:09:40.900Z,93.12
2022-08-12T21:12:31.611Z,93.55
2022-08-12T21:15:00.776Z,93.08
2022-08-12T21:18:08.056Z,91.49
2022-08-12T21:20:32.680Z,91.08
2022-08-12T21:22:59.506Z,88.81
2022-08-12T21:25:44.117Z,87.83
2022-08-12T21:28:12.828Z,91.03
2022-08-12T21:30:43.499Z,93.28
2022-08-12T21:33:58.515Z,94.75
2022-08-12T21:36:22.654Z,94.99
2022-08-12T21:38:51.129Z,94.75
2022-08-12T21:41:20.320Z,95.12
2022-08-12T21:43:50.504Z,95.38
2022-08-12T21:46:34.912Z,94.51
2022-08-12T21:49:05.306Z,94.06
2022-08-12T21:51:49.767Z,92.74
2022-08-12T21:54:22.648Z,91.44
2022-08-12T21:56:55.853Z,91.71
2022-08-12T21:59:22.737Z,91.72
2022-08-12T22:01:49.923Z,93.00
2022-08-12T22:04:36.423Z,94.46
2022-08-12T22:07:04.552Z,95.54
2022-08-12T22:09:43.355Z,96.62
2022-08-12T22:12:29.492Z,97.92
2022-08-12T22:14:56.468Z,99.04
2022-08-12T22:17:49.664Z,100.00
2022-08-12T22:20:18.106Z,100.00
2022-08-12T22:22:53.901Z,100.00
2022-08-12T22:25:27.826Z,100.00
2022-08-12T22:28:13.267Z,100.00
2022-08-12T22:30:59.580Z,100.00
2022-08-12T22:33:26.350Z,99.93
2022-08-12T22:35:59.348Z,100.00
2022-08-12T22:38:29.370Z,100.00
2022-08-12T22:41:01.354Z,99.67
2022-08-12T22:44:01.182Z,98.85
2022-08-12T22:46:52.696Z,98.74
2022-08-12T22:49:36.527Z,98.83
2022-08-12T22:52:12.108Z,99.42
2022-08-12T22:54:58.026Z,99.35
2022-08-12T22:57:53.872Z,98.74
2022-08-12T23:00:27.420Z,98.86
2022-08-12T23:03:00.460Z,98.72
2022-08-12T23:05:36.976Z,98.13
2022-08-12T23:08:29.888Z,98.24
2022-08-12T23:11:05.872Z,98.95
2022-08-12T23:13:55.278Z,98.33
2022-08-12T23:16:31.109Z,98.15
2022-08-12T23:19:10.851Z,97.85
2022-08-12T23:22:06.456Z,97.57
2022-08-12T23:24:54.024Z,98.01
2022-08-12T23:27:50.616Z,97.97
2022-08-12T23:30:31.664Z,97.89
2022-08-12T23:33:19.897Z,98.98
2022-08-12T23:35:59.313Z,99.41
2022-08-12T23:38:32.442Z,99.94
2022-08-12T23:41:02.122Z,100.00
2022-08-12T23:43:39.095Z,100.00
2022-08-12T23:46:10.256Z,100.00
2022-08-12T23:48:38.184Z,100.00
2022-08-12T23:51:23.333Z,100.00
2022-08-12T23:54:03.017Z,100.00
2022-08-12T23:56:33.808Z,100.00
2022-08-12T23:59:02.989Z,100.00
